Time;durP1;ratioP1;P1;durP2;ratioP2;P2;SDS_P1;SDS_P2;PMS_P1;PMS_P2;Temp;Humidity;BMP_temperature;BMP_pressure;BME280_temperature;BME280_humidity;BME280_pressure;Samples;Min_cycle;Max_cycle;Signal;HPM_P1;HPM_P2
2022/05/21 00:00:29;;;;;;;0.80;0.70;;;12.50;99.90;;;;;;5054120;28;20437;-77
2022/05/21 00:02:56;;;;;;;1.00;0.90;;;12.40;99.90;;;;;;5054735;28;20780;-77
2022/05/21 00:05:25;;;;;;;0.50;0.40;;;12.40;99.90;;;;;;5054604;28;20194;-77
2022/05/21 00:07:52;;;;;;;6.03;1.73;;;12.40;99.90;;;;;;5053796;28;20195;-77
2022/05/21 00:10:22;;;;;;;0.60;0.55;;;12.40;99.90;;;;;;5054360;28;20488;-77
2022/05/21 00:12:48;;;;;;;0.63;0.63;;;12.30;99.90;;;;;;5054466;28;20198;-77
2022/05/21 00:15:19;;;;;;;2.35;2.15;;;12.30;99.90;;;;;;5054244;28;20477;-77
2022/05/21 00:17:46;;;;;;;0.50;0.40;;;12.30;99.90;;;;;;5054339;28;20179;-75
2022/05/21 00:22:54;;;;;;;0.50;0.40;;;12.20;99.90;;;;;;5053891;28;20956;-77
2022/05/21 00:25:21;;;;;;;2.78;2.58;;;12.20;99.90;;;;;;5054278;28;20483;-77
2022/05/21 00:27:48;;;;;;;0.88;0.88;;;12.20;99.90;;;;;;5053750;28;20198;-76
2022/05/21 00:30:16;;;;;;;1.52;1.42;;;12.20;99.90;;;;;;5053893;28;20607;-77
2022/05/21 00:32:43;;;;;;;1.13;1.13;;;12.20;99.90;;;;;;5053816;28;20194;-77
2022/05/21 00:35:11;;;;;;;0.57;0.50;;;12.20;99.90;;;;;;5053893;28;20226;-77
2022/05/21 00:37:37;;;;;;;1.20;1.10;;;12.20;99.90;;;;;;5053798;28;20194;-77
2022/05/21 00:40:05;;;;;;;0.50;0.40;;;12.20;99.90;;;;;;5053912;28;20452;-77
2022/05/21 00:42:33;;;;;;;3.90;3.70;;;12.20;99.90;;;;;;5053527;28;20194;-76
2022/05/21 00:44:59;;;;;;;3.22;2.08;;;12.20;99.90;;;;;;5053583;28;20584;-77
2022/05/21 00:47:28;;;;;;;2.47;2.38;;;12.10;99.90;;;;;;5053325;28;20199;-76
2022/05/21 00:49:54;;;;;;;3.63;3.42;;;12.20;99.90;;;;;;5053723;28;20191;-77
2022/05/21 00:52:25;;;;;;;2.53;2.42;;;12.20;99.90;;;;;;5053769;28;20222;-78
2022/05/21 00:54:55;;;;;;;2.10;1.88;;;12.10;99.90;;;;;;5053206;28;20225;-76
2022/05/21 00:57:26;;;;;;;2.75;2.05;;;12.10;99.90;;;;;;5053225;28;20219;-76
2022/05/21 01:00:10;;;;;;;1.25;0.98;;;12.10;99.90;;;;;;5053537;28;20686;-77
2022/05/21 01:02:40;;;;;;;2.60;1.63;;;12.00;99.90;;;;;;5052881;28;20183;-77
2022/05/21 01:05:10;;;;;;;1.97;1.17;;;12.00;99.90;;;;;;5053251;28;20659;-77
2022/05/21 01:07:37;;;;;;;0.90;0.60;;;12.00;99.90;;;;;;5053438;28;20445;-77
2022/05/21 01:10:05;;;;;;;0.50;0.40;;;11.90;99.90;;;;;;5053026;28;20616;-77
2022/05/21 01:12:36;;;;;;;2.00;1.50;;;11.90;99.90;;;;;;5053468;28;20210;-77
2022/05/21 01:15:17;;;;;;;4.00;1.05;;;11.90;99.90;;;;;;5053788;28;20222;-77
2022/05/21 01:17:45;;;;;;;1.45;1.35;;;11.90;99.90;;;;;;5053188;28;20179;-77
2022/05/21 01:20:18;;;;;;;0.95;0.95;;;11.80;99.90;;;;;;5052261;28;20197;-77
2022/05/21 01:22:48;;;;;;;3.57;1.30;;;11.80;99.90;;;;;;5053387;28;20183;-77
2022/05/21 01:25:17;;;;;;;2.60;2.40;;;11.80;99.90;;;;;;5053178;28;20429;-77
2022/05/21 01:27:45;;;;;;;3.80;1.88;;;11.80;99.90;;;;;;5052620;28;20203;-78
2022/05/21 01:30:16;;;;;;;0.70;0.50;;;11.70;99.90;;;;;;5052934;28;20682;-76
2022/05/21 01:32:46;;;;;;;1.00;1.00;;;11.70;99.90;;;;;;5053023;28;20191;-77
2022/05/21 01:35:12;;;;;;;1.35;1.35;;;11.70;99.90;;;;;;5053008;28;20432;-77
2022/05/21 01:37:39;;;;;;;2.95;2.70;;;11.70;99.90;;;;;;5052805;28;20194;-77
2022/05/21 01:40:09;;;;;;;2.40;2.20;;;11.70;99.90;;;;;;5052724;28;20248;-78
2022/05/21 01:42:36;;;;;;;1.30;1.13;;;11.70;99.90;;;;;;5052815;28;20441;-77
2022/05/21 01:45:03;;;;;;;5.00;1.48;;;11.70;99.90;;;;;;5052367;28;20722;-75
2022/05/21 01:47:31;;;;;;;3.03;2.73;;;11.80;99.90;;;;;;5052002;28;20186;-77
2022/05/21 01:49:58;;;;;;;1.63;0.82;;;11.90;99.90;;;;;;5052832;28;20953;-77
2022/05/21 01:52:26;;;;;;;0.50;0.40;;;11.90;99.90;;;;;;5052598;28;20195;-77
2022/05/21 01:54:52;;;;;;;0.60;0.60;;;12.00;99.90;;;;;;5052308;28;20469;-77
2022/05/21 01:57:21;;;;;;;0.50;0.40;;;12.10;99.90;;;;;;5052574;28;20222;-77
2022/05/21 01:59:47;;;;;;;0.50;0.40;;;12.10;99.90;;;;;;5052252;28;20438;-77
2022/05/21 02:02:15;;;;;;;0.50;0.50;;;12.20;99.90;;;;;;5052294;28;20611;-77
2022/05/21 02:04:41;;;;;;;1.48;1.38;;;12.20;99.90;;;;;;5052330;28;20763;-77
2022/05/21 02:07:08;;;;;;;0.80;0.50;;;12.20;99.90;;;;;;5052502;28;20194;-78
2022/05/21 02:09:35;;;;;;;0.50;0.40;;;12.20;99.90;;;;;;5051934;28;20205;-77
2022/05/21 02:12:02;;;;;;;0.50;0.40;;;12.20;99.90;;;;;;5052132;28;20444;-77
2022/05/21 02:14:30;;;;;;;3.03;1.47;;;12.20;99.90;;;;;;5052010;28;20214;-77
2022/05/21 02:16:56;;;;;;;0.60;0.60;;;12.30;99.90;;;;;;5051997;28;20484;-78
2022/05/21 02:19:23;;;;;;;0.77;0.70;;;12.30;99.90;;;;;;5051262;28;20194;-76
2022/05/21 02:21:50;;;;;;;1.17;1.07;;;12.30;99.90;;;;;;5051872;28;20202;-77
2022/05/21 02:24:17;;;;;;;0.70;0.70;;;12.30;99.90;;;;;;5051868;28;20467;-77
2022/05/21 02:26:43;;;;;;;1.40;0.95;;;12.40;99.90;;;;;;5051641;28;20199;-78
2022/05/21 02:29:10;;;;;;;1.25;1.15;;;12.40;99.90;;;;;;5051649;28;20198;-78
2022/05/21 02:31:38;;;;;;;2.57;1.00;;;12.40;99.90;;;;;;5051849;28;20203;-77
2022/05/21 02:34:05;;;;;;;0.50;0.40;;;12.40;99.90;;;;;;5051648;28;20453;-77
2022/05/21 02:39:28;;;;;;;0.70;0.70;;;12.50;99.90;;;;;;5051481;28;20967;-76
2022/05/21 02:41:56;;;;;;;0.90;0.90;;;12.50;99.90;;;;;;5051602;28;20273;-76
2022/05/21 02:44:23;;;;;;;1.87;1.27;;;12.50;99.90;;;;;;5051659;28;20461;-77
2022/05/21 02:46:51;;;;;;;1.80;0.80;;;12.60;99.90;;;;;;5051342;28;20441;-77
2022/05/21 02:49:18;;;;;;;0.70;0.70;;;12.50;99.90;;;;;;5051266;28;20953;-77
2022/05/21 02:51:44;;;;;;;2.63;0.97;;;12.50;99.90;;;;;;5051364;28;20975;-77
2022/05/21 02:54:14;;;;;;;1.33;0.85;;;12.60;99.90;;;;;;5102051;23;20473;-82
2022/05/21 02:56:44;;;;;;;0.50;0.47;;;12.60;99.90;;;;;;5038157;28;20219;-82
2022/05/21 02:59:11;;;;;;;1.83;0.65;;;12.60;99.90;;;;;;5056533;28;20445;-81
2022/05/21 03:01:38;;;;;;;5.80;2.70;;;12.60;99.90;;;;;;5058092;28;20672;-82
2022/05/21 03:04:07;;;;;;;0.90;0.90;;;12.60;99.90;;;;;;5059527;28;20465;-81
2022/05/21 03:06:34;;;;;;;1.70;0.70;;;12.60;99.90;;;;;;5062921;28;20429;-81
2022/05/21 03:11:46;;;;;;;2.00;1.53;;;12.60;99.90;;;;;;5048730;28;20961;-79
2022/05/21 03:14:13;;;;;;;0.60;0.50;;;12.60;99.90;;;;;;5044856;28;20458;-80
2022/05/21 03:16:40;;;;;;;0.50;0.40;;;12.60;99.90;;;;;;5038629;28;20508;-82
2022/05/21 03:19:08;;;;;;;0.60;0.60;;;12.70;99.90;;;;;;5035880;28;20205;-81
2022/05/21 03:21:34;;;;;;;0.50;0.40;;;12.70;99.90;;;;;;5037266;28;20449;-80
2022/05/21 03:24:01;;;;;;;0.50;0.40;;;12.70;99.90;;;;;;5043915;28;20219;-80
2022/05/21 03:26:29;;;;;;;6.50;6.00;;;12.70;99.90;;;;;;5048599;28;20440;-79
2022/05/21 03:28:56;;;;;;;0.70;0.70;;;12.70;99.90;;;;;;5048083;28;20799;-80
2022/05/21 03:31:23;;;;;;;1.80;1.70;;;12.70;99.90;;;;;;5048161;28;20456;-79
2022/05/21 03:33:49;;;;;;;0.50;0.50;;;12.70;99.90;;;;;;5046134;28;20219;-80
2022/05/21 03:36:17;;;;;;;3.00;2.40;;;12.70;99.90;;;;;;5039330;28;20473;-81
2022/05/21 03:38:44;;;;;;;0.60;0.60;;;12.70;99.90;;;;;;5037180;28;20444;-83
2022/05/21 03:41:11;;;;;;;0.83;0.50;;;12.70;99.90;;;;;;5037300;28;20962;-81
2022/05/21 03:43:37;;;;;;;0.60;0.53;;;12.70;99.90;;;;;;5037330;28;20442;-82
2022/05/21 03:46:04;;;;;;;12.03;2.10;;;12.70;99.90;;;;;;5037601;28;20449;-82
2022/05/21 03:48:32;;;;;;;1.40;1.30;;;12.70;99.90;;;;;;5037108;28;20500;-79
2022/05/21 03:50:58;;;;;;;1.43;1.33;;;12.70;99.90;;;;;;5037611;28;20734;-80
2022/05/21 03:53:28;;;;;;;1.90;1.43;;;12.70;99.90;;;;;;5036862;28;20442;-81
2022/05/21 03:55:55;;;;;;;0.50;0.40;;;12.70;99.90;;;;;;5037150;28;20546;-83
2022/05/21 03:58:22;;;;;;;0.60;0.60;;;12.70;99.90;;;;;;5036608;28;20445;-82
2022/05/21 04:00:50;;;;;;;1.33;1.33;;;12.70;99.90;;;;;;5037169;28;20673;-82
2022/05/21 04:03:17;;;;;;;0.63;0.63;;;12.70;99.90;;;;;;5037037;28;20474;-82
2022/05/21 04:05:44;;;;;;;0.82;0.82;;;12.70;99.90;;;;;;5036953;28;20959;-81
2022/05/21 04:08:11;;;;;;;1.00;1.00;;;12.80;99.90;;;;;;5036477;28;20205;-82
2022/05/21 04:10:39;;;;;;;1.35;1.23;;;12.80;99.90;;;;;;5037129;28;20442;-83
2022/05/21 04:13:06;;;;;;;1.33;1.23;;;12.80;99.90;;;;;;5037215;28;20549;-83
2022/05/21 04:15:33;;;;;;;0.85;0.57;;;12.80;99.90;;;;;;5036414;28;20472;-81
2022/05/21 04:18:00;;;;;;;0.50;0.50;;;12.80;99.90;;;;;;5036059;28;20215;-83
2022/05/21 04:20:27;;;;;;;2.00;1.80;;;12.70;99.90;;;;;;5037219;28;20468;-82
2022/05/21 04:22:54;;;;;;;0.50;0.40;;;12.80;99.90;;;;;;5037064;28;20807;-83
2022/05/21 04:25:22;;;;;;;0.50;0.40;;;12.80;99.90;;;;;;5036732;28;20776;-81
2022/05/21 04:27:50;;;;;;;1.93;0.53;;;12.80;99.90;;;;;;5035731;28;20434;-82
2022/05/21 04:30:19;;;;;;;0.85;0.85;;;12.80;99.90;;;;;;5036410;28;20442;-82
2022/05/21 04:32:46;;;;;;;0.60;0.60;;;12.80;99.90;;;;;;5036587;28;20253;-81
2022/05/21 04:35:14;;;;;;;1.50;1.40;;;12.90;99.90;;;;;;5036622;28;20469;-81
2022/05/21 04:37:41;;;;;;;0.60;0.60;;;12.90;99.90;;;;;;5036410;28;20222;-81
2022/05/21 04:40:11;;;;;;;2.57;2.30;;;12.80;99.90;;;;;;5036522;28;20218;-82
2022/05/21 04:42:38;;;;;;;0.60;0.60;;;12.80;99.90;;;;;;5036529;28;20430;-80
2022/05/21 04:45:08;;;;;;;0.50;0.43;;;12.90;99.90;;;;;;5036075;28;20218;-81
2022/05/21 04:47:35;;;;;;;1.20;0.87;;;12.80;99.90;;;;;;5036035;28;20441;-82
2022/05/21 04:50:02;;;;;;;1.00;1.00;;;12.80;99.90;;;;;;5036721;28;20441;-80
2022/05/21 04:52:29;;;;;;;0.50;0.50;;;12.90;99.90;;;;;;5035604;28;20963;-82
2022/05/21 04:54:55;;;;;;;2.13;1.73;;;12.90;99.90;;;;;;5039409;28;20477;-81
2022/05/21 04:57:22;;;;;;;1.13;1.03;;;12.90;99.90;;;;;;5050522;28;20477;-81
2022/05/21 04:59:49;;;;;;;0.50;0.50;;;12.90;99.90;;;;;;5051293;28;20434;-82
2022/05/21 05:02:17;;;;;;;0.50;0.40;;;13.00;99.90;;;;;;5051484;28;20445;-84
2022/05/21 05:04:44;;;;;;;1.73;0.83;;;13.00;99.90;;;;;;5050882;28;20215;-82
2022/05/21 05:07:10;;;;;;;1.23;1.13;;;13.10;99.90;;;;;;5053375;28;20424;-81
2022/05/21 05:09:41;;;;;;;0.50;0.40;;;13.10;99.90;;;;;;5051775;28;20456;-83
2022/05/21 05:12:08;;;;;;;1.13;0.90;;;13.20;99.90;;;;;;5048867;28;20434;-85
2022/05/21 05:14:35;;;;;;;1.90;0.60;;;13.20;99.90;;;;;;5051187;28;20468;-81
2022/05/21 05:17:02;;;;;;;4.20;1.90;;;13.20;99.90;;;;;;5051945;28;20478;-82
2022/05/21 05:19:31;;;;;;;0.50;0.50;;;13.30;99.90;;;;;;5051646;28;20438;-84
2022/05/21 05:21:57;;;;;;;0.90;0.50;;;13.30;99.90;;;;;;5052256;28;20451;-83
2022/05/21 05:24:25;;;;;;;0.50;0.40;;;13.40;99.90;;;;;;5051226;28;20458;-82
2022/05/21 05:26:51;;;;;;;0.50;0.50;;;13.40;99.90;;;;;;5052635;28;20450;-82
2022/05/21 05:29:18;;;;;;;1.77;0.60;;;13.50;99.90;;;;;;5039161;28;20449;-83
2022/05/21 05:31:45;;;;;;;0.82;0.82;;;13.40;99.90;;;;;;5037214;28;20199;-82
2022/05/21 05:34:12;;;;;;;1.20;1.07;;;13.40;99.90;;;;;;5037256;28;20573;-84
2022/05/21 05:36:41;;;;;;;0.50;0.40;;;13.30;99.90;;;;;;5036169;28;20485;-82
2022/05/21 05:39:08;;;;;;;1.43;1.23;;;13.40;99.90;;;;;;5036496;28;20445;-84
2022/05/21 05:41:38;;;;;;;2.80;2.60;;;13.50;99.90;;;;;;5038111;28;20430;-82
2022/05/21 05:44:05;;;;;;;1.90;0.70;;;13.50;99.90;;;;;;5039076;28;20524;-83
2022/05/21 05:46:32;;;;;;;0.80;0.77;;;13.50;99.90;;;;;;5038477;28;20997;-82
2022/05/21 05:49:00;;;;;;;2.20;1.17;;;13.50;99.90;;;;;;5037122;28;20446;-82
2022/05/21 05:51:27;;;;;;;0.50;0.40;;;13.60;99.90;;;;;;5038317;28;20843;-84
2022/05/21 05:53:55;;;;;;;4.00;1.10;;;13.60;99.90;;;;;;5037363;28;20619;-83
2022/05/21 05:56:22;;;;;;;0.50;0.50;;;13.70;99.90;;;;;;5037564;28;20430;-84
2022/05/21 06:01:34;;;;;;;0.73;0.73;;;13.80;99.90;;;;;;5035778;28;20444;-83
2022/05/21 06:04:01;;;;;;;0.90;0.80;;;13.70;99.90;;;;;;5035885;28;20835;-82
2022/05/21 06:06:28;;;;;;;9.30;1.37;;;13.70;99.90;;;;;;5036095;28;20454;-83
2022/05/21 06:08:56;;;;;;;0.90;0.60;;;13.70;99.90;;;;;;5037869;28;20501;-84
2022/05/21 06:11:23;;;;;;;0.93;0.90;;;13.80;99.90;;;;;;5039042;28;20966;-84
2022/05/21 06:13:50;;;;;;;0.83;0.83;;;13.70;99.90;;;;;;5034749;28;20462;-83
2022/05/21 06:16:17;;;;;;;3.03;1.03;;;13.80;99.90;;;;;;5035113;28;20449;-84
2022/05/21 06:18:45;;;;;;;0.50;0.40;;;13.70;99.90;;;;;;5034184;28;20471;-83
2022/05/21 06:21:12;;;;;;;1.20;0.80;;;13.70;99.90;;;;;;5035012;28;20438;-83
2022/05/21 06:23:39;;;;;;;0.50;0.40;;;13.70;99.90;;;;;;5034359;28;20450;-86
2022/05/21 06:26:07;;;;;;;1.57;0.70;;;13.70;99.90;;;;;;5034482;28;20859;-84
2022/05/21 06:28:34;;;;;;;0.50;0.40;;;13.70;99.90;;;;;;5034715;28;20637;-80
2022/05/21 06:31:00;;;;;;;2.43;2.23;;;13.80;99.90;;;;;;5034228;28;20963;-83
2022/05/21 06:33:29;;;;;;;1.33;1.27;;;13.90;99.90;;;;;;5035003;28;20452;-82
2022/05/21 06:36:04;;;;;;;1.60;1.50;;;13.90;99.90;;;;;;5035437;28;20450;-83
2022/05/21 06:38:31;;;;;;;1.70;1.33;;;13.90;99.90;;;;;;5034773;28;20480;-84
2022/05/21 06:40:58;;;;;;;0.50;0.40;;;13.90;99.90;;;;;;5034852;28;20434;-84
2022/05/21 06:43:26;;;;;;;0.50;0.40;;;13.90;99.90;;;;;;5034599;28;20438;-83
2022/05/21 06:45:53;;;;;;;1.10;1.00;;;13.90;99.90;;;;;;5035684;28;20516;-83
2022/05/21 06:48:19;;;;;;;1.23;1.13;;;13.90;99.90;;;;;;5034442;28;20446;-83
2022/05/21 06:50:47;;;;;;;1.23;1.13;;;13.90;99.90;;;;;;5034582;28;20919;-83
2022/05/21 06:53:14;;;;;;;0.50;0.50;;;13.90;99.90;;;;;;5034446;28;20445;-82
2022/05/21 06:55:41;;;;;;;1.67;0.97;;;13.90;99.90;;;;;;5033956;28;20489;-83
2022/05/21 06:58:08;;;;;;;1.10;1.00;;;13.90;99.90;;;;;;5033864;28;20471;-81
2022/05/21 07:00:36;;;;;;;0.83;0.83;;;13.80;99.90;;;;;;5033356;28;20456;-83
2022/05/21 07:03:03;;;;;;;0.63;0.63;;;13.80;99.90;;;;;;5034684;28;20492;-83
2022/05/21 07:08:16;;;;;;;0.50;0.40;;;13.80;99.90;;;;;;5034131;28;20468;-84
2022/05/21 07:10:42;;;;;;;0.50;0.40;;;13.90;99.90;;;;;;5034264;28;20450;-83
2022/05/21 07:13:09;;;;;;;0.93;0.93;;;13.90;99.90;;;;;;5033837;28;20452;-82
2022/05/21 07:15:37;;;;;;;10.43;2.30;;;13.90;99.90;;;;;;5033841;28;20461;-82
2022/05/21 07:18:05;;;;;;;0.77;0.77;;;13.90;99.90;;;;;;5033721;28;20478;-84
2022/05/21 07:20:31;;;;;;;1.37;0.87;;;13.90;99.90;;;;;;5034355;28;20438;-84
2022/05/21 07:23:00;;;;;;;0.53;0.47;;;14.00;99.90;;;;;;5034784;28;20902;-84
2022/05/21 07:25:28;;;;;;;0.60;0.60;;;14.00;99.90;;;;;;5034512;28;20477;-82
2022/05/21 07:27:55;;;;;;;1.33;1.17;;;14.10;99.90;;;;;;5034478;28;20442;-84
2022/05/21 07:30:22;;;;;;;1.80;1.70;;;14.10;99.90;;;;;;5034247;28;20861;-83
2022/05/21 07:32:50;;;;;;;2.60;0.70;;;14.10;99.90;;;;;;5034119;28;20453;-83
2022/05/21 07:35:19;;;;;;;2.10;1.90;;;14.10;99.90;;;;;;5034075;28;20609;-82
2022/05/21 07:37:46;;;;;;;0.57;0.43;;;14.00;99.90;;;;;;5033585;28;20509;-82
2022/05/21 07:40:14;;;;;;;0.50;0.40;;;14.00;99.90;;;;;;5034007;28;20445;-81
2022/05/21 07:42:40;;;;;;;1.17;1.07;;;14.00;99.90;;;;;;5034010;28;20461;-81
2022/05/21 07:45:10;;;;;;;0.50;0.40;;;14.00;99.90;;;;;;5034218;28;20489;-83
2022/05/21 07:47:37;;;;;;;0.50;0.40;;;14.00;99.90;;;;;;5034418;28;20434;-82
2022/05/21 07:50:07;;;;;;;0.50;0.40;;;14.10;99.90;;;;;;5033847;28;20457;-83
2022/05/21 07:52:34;;;;;;;5.73;1.67;;;14.10;99.90;;;;;;5034904;28;20439;-84
2022/05/21 07:55:00;;;;;;;2.40;2.20;;;14.10;99.90;;;;;;5034150;28;20473;-82
2022/05/21 07:57:27;;;;;;;2.60;1.47;;;14.10;99.90;;;;;;5033410;28;20449;-85
2022/05/21 07:59:54;;;;;;;5.50;2.40;;;14.10;99.90;;;;;;5033630;28;20445;-84
2022/05/21 08:02:21;;;;;;;3.37;2.77;;;14.20;99.90;;;;;;5033858;28;20867;-83
2022/05/21 08:04:49;;;;;;;4.97;2.77;;;14.30;99.90;;;;;;5034664;28;20458;-82
2022/05/21 08:07:17;;;;;;;1.27;1.27;;;14.30;99.90;;;;;;5039477;28;20442;-85
2022/05/21 08:09:44;;;;;;;0.70;0.70;;;14.40;99.90;;;;;;5039959;28;20442;-83
2022/05/21 08:12:14;;;;;;;0.60;0.50;;;14.50;99.90;;;;;;5040413;28;20453;-84
2022/05/21 08:14:41;;;;;;;1.07;0.97;;;14.70;99.90;;;;;;5038280;28;20462;-82
2022/05/21 08:17:08;;;;;;;0.60;0.60;;;14.90;99.90;;;;;;5041957;28;20511;-84
2022/05/21 08:19:35;;;;;;;1.63;1.50;;;15.20;99.90;;;;;;5042647;28;20986;-79
2022/05/21 08:27:28;;;;;;;0.70;0.70;;;15.30;99.90;;;;;;5038421;28;20474;-82
2022/05/21 08:29:54;;;;;;;1.93;1.83;;;15.50;99.90;;;;;;5039827;28;20462;-82
2022/05/21 08:32:21;;;;;;;2.20;1.23;;;15.60;99.90;;;;;;5039660;28;20439;-82
2022/05/21 08:34:50;;;;;;;0.50;0.40;;;15.70;99.90;;;;;;5039323;28;20490;-83
2022/05/21 08:37:17;;;;;;;2.00;1.47;;;15.90;99.90;;;;;;5038015;28;20454;-83
2022/05/21 08:39:45;;;;;;;1.00;0.70;;;16.40;99.90;;;;;;5038572;28;20476;-82
2022/05/21 08:42:15;;;;;;;1.43;1.43;;;16.70;99.90;;;;;;5038099;28;20763;-83
2022/05/21 08:44:46;;;;;;;0.50;0.47;;;16.60;99.90;;;;;;5038501;28;20661;-84
2022/05/21 08:47:20;;;;;;;1.97;1.60;;;16.00;99.90;;;;;;5037709;28;20451;-83
2022/05/21 08:49:55;;;;;;;0.73;0.73;;;15.80;99.90;;;;;;5037815;28;20450;-84
2022/05/21 08:52:26;;;;;;;2.97;1.47;;;15.70;99.90;;;;;;5037808;28;20436;-83
2022/05/21 08:54:57;;;;;;;5.03;3.57;;;15.50;99.90;;;;;;5092812;23;20569;-79
2022/05/21 08:57:29;;;;;;;0.50;0.40;;;15.40;99.90;;;;;;5037407;28;20435;-78
2022/05/21 09:00:03;;;;;;;0.67;0.57;;;15.40;99.90;;;;;;5050928;28;20949;-78
2022/05/21 09:02:33;;;;;;;6.33;1.90;;;15.40;99.90;;;;;;5054127;28;20939;-78
2022/05/21 09:05:01;;;;;;;0.70;0.70;;;15.40;99.90;;;;;;5054400;28;20475;-78
2022/05/21 09:07:31;;;;;;;1.53;0.67;;;15.40;99.90;;;;;;5054419;28;20441;-77
2022/05/21 09:10:12;;;;;;;0.50;0.40;;;15.40;99.90;;;;;;5054373;28;20485;-79
2022/05/21 09:12:44;;;;;;;0.70;0.70;;;15.40;99.90;;;;;;5054125;28;20469;-78
2022/05/21 09:16:54;;;;;;;1.70;1.60;;;15.60;99.90;;;;;;5054526;28;20544;-79
2022/05/21 09:18:06;;;;;;;0.80;0.70;;;15.50;99.90;;;;;;5052894;28;20492;-78
2022/05/21 09:20:37;;;;;;;0.80;0.80;;;15.60;99.90;;;;;;5054364;28;20991;-76
2022/05/21 09:23:04;;;;;;;1.10;0.97;;;15.50;99.90;;;;;;5053327;28;20779;-79
2022/05/21 09:25:32;;;;;;;0.70;0.70;;;15.70;99.90;;;;;;5053906;28;20755;-78
2022/05/21 09:28:05;;;;;;;0.60;0.60;;;15.70;99.90;;;;;;5054094;28;20432;-79
2022/05/21 09:30:33;;;;;;;0.50;0.40;;;15.60;99.90;;;;;;5054448;28;20431;-77
2022/05/21 09:33:02;;;;;;;1.70;1.57;;;15.30;99.90;;;;;;5053186;28;20521;-79
2022/05/21 09:35:31;;;;;;;0.50;0.43;;;15.20;99.90;;;;;;5054500;28;20473;-79
2022/05/21 09:38:12;;;;;;;0.80;0.60;;;16.30;99.90;;;;;;5053361;28;21055;-79
2022/05/21 09:40:42;;;;;;;1.77;1.40;;;18.40;99.90;;;;;;5054347;28;20425;-79
2022/05/21 09:46:17;;;;;;;2.53;2.33;;;20.40;99.90;;;;;;5053120;28;20506;-78
2022/05/21 09:48:44;;;;;;;0.50;0.40;;;20.80;99.90;;;;;;5053193;28;20409;-78
2022/05/21 09:51:25;;;;;;;2.30;2.10;;;21.40;99.90;;;;;;5053623;28;20453;-79
2022/05/21 09:53:53;;;;;;;2.47;2.27;;;22.30;99.90;;;;;;5053929;28;20949;-79
2022/05/21 09:56:22;;;;;;;1.77;1.67;;;22.80;99.90;;;;;;5053574;28;20882;-78
2022/05/21 09:58:52;;;;;;;1.00;0.60;;;23.50;99.90;;;;;;5054476;28;20469;-79
2022/05/21 10:01:36;;;;;;;0.60;0.60;;;23.40;99.90;;;;;;5055936;28;20965;-79
2022/05/21 10:04:12;;;;;;;1.67;1.50;;;24.00;99.70;;;;;;5053797;28;20432;-79
2022/05/21 10:06:43;;;;;;;0.50;0.40;;;24.90;93.50;;;;;;5054017;28;20472;-78
2022/05/21 10:12:05;;;;;;;0.60;0.60;;;23.50;90.60;;;;;;5053574;28;20787;-78
2022/05/21 10:14:35;;;;;;;0.50;0.40;;;22.60;95.60;;;;;;5053415;28;20445;-80
2022/05/21 10:17:06;;;;;;;0.50;0.30;;;22.30;99.90;;;;;;5053197;28;20440;-78
2022/05/21 10:19:39;;;;;;;0.50;0.50;;;22.90;99.90;;;;;;5051743;28;20479;-78
2022/05/21 10:22:19;;;;;;;2.60;2.13;;;24.10;98.10;;;;;;5053362;28;20938;-78
2022/05/21 10:24:56;;;;;;;1.23;1.13;;;23.40;91.80;;;;;;5053305;28;20460;-79
2022/05/21 10:27:39;;;;;;;0.50;0.30;;;22.70;98.10;;;;;;5052499;28;20452;-76
2022/05/21 10:30:11;;;;;;;0.50;0.30;;;23.00;97.60;;;;;;5052570;28;20440;-79
2022/05/21 10:33:08;;;;;;;4.43;1.27;;;23.10;97.20;;;;;;5052773;28;20452;-78
2022/05/21 10:35:55;;;;;;;0.60;0.40;;;22.60;97.70;;;;;;5052667;28;20464;-79
2022/05/21 10:38:42;;;;;;;0.50;0.40;;;21.80;99.90;;;;;;5052537;28;20463;-78
2022/05/21 10:41:15;;;;;;;7.40;1.33;;;21.60;99.90;;;;;;5052690;28;20444;-78
2022/05/21 10:44:08;;;;;;;2.90;2.20;;;20.90;99.90;;;;;;5052820;28;20848;-78
2022/05/21 10:46:46;;;;;;;2.30;1.70;;;20.80;99.90;;;;;;5052907;28;20475;-78
2022/05/21 10:49:41;;;;;;;1.03;0.83;;;20.80;99.90;;;;;;5052486;28;20452;-78
2022/05/21 10:52:15;;;;;;;2.83;2.20;;;20.20;99.90;;;;;;5052120;28;20429;-78
2022/05/21 10:55:02;;;;;;;0.60;0.60;;;20.00;99.90;;;;;;5051631;28;20521;-78
2022/05/21 10:57:39;;;;;;;0.50;0.30;;;20.00;99.90;;;;;;5052075;28;20599;-75
2022/05/21 11:00:10;;;;;;;2.13;2.03;;;20.00;99.90;;;;;;5051978;28;20484;-79
2022/05/21 11:03:21;;;;;;;0.50;0.40;;;19.60;99.90;;;;;;5051344;28;20444;-75
2022/05/21 11:05:57;;;;;;;1.97;1.87;;;19.30;99.90;;;;;;5051645;28;20460;-79
2022/05/21 11:08:32;;;;;;;0.70;0.70;;;19.00;99.90;;;;;;5052317;28;20433;-77
2022/05/21 11:11:03;;;;;;;0.70;0.60;;;18.50;99.90;;;;;;5051546;28;20424;-78
2022/05/21 11:13:36;;;;;;;0.50;0.30;;;18.30;99.90;;;;;;5050952;28;20440;-78
2022/05/21 11:16:13;;;;;;;0.60;0.50;;;18.20;99.90;;;;;;5051454;28;20473;-78
2022/05/21 11:18:46;;;;;;;0.50;0.30;;;18.20;99.90;;;;;;5050582;28;20476;-77
2022/05/21 11:21:18;;;;;;;0.50;0.40;;;18.10;99.90;;;;;;5051531;28;20429;-79
2022/05/21 11:23:55;;;;;;;0.67;0.67;;;18.10;99.90;;;;;;5051194;28;20425;-78
2022/05/21 11:26:30;;;;;;;0.70;0.70;;;18.30;99.90;;;;;;5050949;28;20495;-78
2022/05/21 11:29:01;;;;;;;0.83;0.83;;;19.40;99.90;;;;;;5051130;28;20483;-78
2022/05/21 11:37:22;;;;;;;0.50;0.30;;;21.70;99.90;;;;;;5051194;28;20400;-76
2022/05/21 11:39:50;;;;;;;0.70;0.70;;;21.40;99.90;;;;;;5051147;28;20486;-77
2022/05/21 11:42:22;;;;;;;0.50;0.30;;;20.70;99.90;;;;;;5051430;28;20441;-78
2022/05/21 11:44:56;;;;;;;0.70;0.67;;;19.60;99.90;;;;;;5050949;28;20460;-76
2022/05/21 11:47:34;;;;;;;0.50;0.30;;;19.30;99.90;;;;;;5055294;28;20882;-77
2022/05/21 11:50:14;;;;;;;0.60;0.40;;;19.10;99.90;;;;;;5054364;28;20504;-78
2022/05/21 11:53:04;;;;;;;0.50;0.30;;;18.80;99.90;;;;;;5042705;28;20528;-78
2022/05/21 11:55:52;;;;;;;0.50;0.40;;;18.60;99.90;;;;;;5048107;28;20469;-78
2022/05/21 11:58:27;;;;;;;0.50;0.30;;;18.60;99.90;;;;;;5054215;28;20444;-78
2022/05/21 12:00:54;;;;;;;0.50;0.30;;;18.50;99.90;;;;;;5055302;28;20456;-78
2022/05/21 12:03:24;;;;;;;1.10;1.00;;;18.80;99.90;;;;;;5053863;28;20861;-78
2022/05/21 12:06:23;;;;;;;0.50;0.40;;;19.10;99.90;;;;;;5054828;28;20460;-78
2022/05/21 12:08:50;;;;;;;1.00;0.80;;;19.60;99.90;;;;;;5049194;28;20445;-79
2022/05/21 12:11:45;;;;;;;0.50;0.40;;;19.50;99.90;;;;;;5054483;28;20460;-78
2022/05/21 12:14:22;;;;;;;3.23;0.60;;;19.60;99.90;;;;;;5052520;28;20856;-79
2022/05/21 12:16:56;;;;;;;1.43;1.33;;;19.40;99.90;;;;;;5054632;28;20544;-78
2022/05/21 12:20:01;;;;;;;0.50;0.40;;;18.90;99.90;;;;;;5053632;28;20461;-78
2022/05/21 12:22:51;;;;;;;0.50;0.30;;;18.80;99.90;;;;;;5054583;28;20539;-77
2022/05/21 12:25:54;;;;;;;0.50;0.30;;;18.90;99.90;;;;;;5050943;28;20472;-76
2022/05/21 12:28:21;;;;;;;0.80;0.80;;;19.20;99.90;;;;;;5051710;28;20456;-77
2022/05/21 12:30:48;;;;;;;0.50;0.40;;;19.50;99.90;;;;;;5053889;28;20464;-77
2022/05/21 12:33:24;;;;;;;0.77;0.60;;;19.60;99.90;;;;;;5054336;28;20779;-78
2022/05/21 12:36:00;;;;;;;2.53;2.33;;;19.60;99.90;;;;;;5054367;28;20465;-80
2022/05/21 12:38:35;;;;;;;0.60;0.50;;;19.40;99.90;;;;;;5054140;28;20791;-78
2022/05/21 12:41:08;;;;;;;0.50;0.30;;;19.20;99.90;;;;;;5054503;28;20448;-77
2022/05/21 12:43:46;;;;;;;0.50;0.37;;;19.10;99.90;;;;;;5054086;28;20437;-78
2022/05/21 12:46:22;;;;;;;1.33;0.97;;;19.20;99.90;;;;;;5053906;28;20457;-78
2022/05/21 12:48:50;;;;;;;0.90;0.90;;;19.20;99.90;;;;;;5053625;28;20449;-79
2022/05/21 12:51:30;;;;;;;0.70;0.50;;;19.20;99.90;;;;;;5054020;28;20487;-79
2022/05/21 12:53:59;;;;;;;7.47;2.93;;;19.30;99.90;;;;;;5053950;28;20494;-78
2022/05/21 12:56:31;;;;;;;0.50;0.40;;;19.60;99.90;;;;;;5053268;28;20461;-77
2022/05/21 12:59:17;;;;;;;1.60;1.50;;;19.90;99.90;;;;;;5053355;28;20973;-77
2022/05/21 13:01:54;;;;;;;0.83;0.67;;;20.50;99.90;;;;;;5053442;28;20441;-77
2022/05/21 13:04:30;;;;;;;3.73;2.43;;;21.90;99.90;;;;;;5053446;28;20791;-76
2022/05/21 13:07:02;;;;;;;0.50;0.30;;;22.00;96.10;;;;;;5053780;28;20424;-78
2022/05/21 13:09:31;;;;;;;0.50;0.40;;;22.70;96.30;;;;;;5052885;28;20846;-77
2022/05/21 13:11:58;;;;;;;0.70;0.47;;;23.30;93.30;;;;;;5053384;28;20438;-77
2022/05/21 13:14:31;;;;;;;0.87;0.80;;;23.00;91.90;;;;;;5053524;28;20436;-77
2022/05/21 13:16:59;;;;;;;0.57;0.40;;;22.90;92.30;;;;;;5053287;28;20475;-78
2022/05/21 13:19:54;;;;;;;0.50;0.33;;;22.50;92.10;;;;;;5052653;28;20985;-78
2022/05/21 13:22:44;;;;;;;2.17;1.47;;;22.10;95.60;;;;;;5053413;28;20818;-76
2022/05/21 13:25:15;;;;;;;0.50;0.30;;;21.50;96.90;;;;;;5053495;28;20470;-77
2022/05/21 13:27:48;;;;;;;0.50;0.30;;;21.00;99.90;;;;;;5052935;28;21322;-77
2022/05/21 13:30:18;;;;;;;0.50;0.30;;;21.20;99.90;;;;;;5052659;28;20827;-77
2022/05/21 13:32:46;;;;;;;0.50;0.30;;;21.40;99.90;;;;;;5053309;28;20441;-78
2022/05/21 13:35:27;;;;;;;0.60;0.50;;;21.50;99.90;;;;;;5053144;28;20531;-78